Time;durP1;ratioP1;P1;durP2;ratioP2;P2;SDS_P1;SDS_P2;PMS_P1;PMS_P2;Temp;Humidity;BMP_temperature;BMP_pressure;BME280_temperature;BME280_humidity;BME280_pressure;Samples;Min_cycle;Max_cycle;Signal;HPM_P1;HPM_P2
2022/11/22 00:01:19;;;;;;;0.00;0.00;;;5.20;99.90;;;;;;5009432;28;20034;-66
2022/11/22 00:03:45;;;;;;;0.00;0.00;;;5.20;99.90;;;;;;5004763;28;20033;-67
2022/11/22 00:06:11;;;;;;;0.00;0.00;;;5.30;99.90;;;;;;5014973;28;20494;-66
2022/11/22 00:08:36;;;;;;;0.00;0.00;;;5.30;99.90;;;;;;5011709;28;20479;-67
2022/11/22 00:11:02;;;;;;;0.00;0.00;;;5.40;99.90;;;;;;5010294;28;20511;-67
2022/11/22 00:13:28;;;;;;;0.00;0.00;;;5.40;99.90;;;;;;5010722;28;20526;-66
2022/11/22 00:16:01;;;;;;;0.00;0.00;;;5.50;99.90;;;;;;5008890;28;20029;-66
2022/11/22 00:18:28;;;;;;;0.00;0.00;;;5.40;99.90;;;;;;5013001;28;20175;-66
2022/11/22 00:20:53;;;;;;;0.00;0.00;;;5.60;99.90;;;;;;5011511;28;20392;-67
2022/11/22 00:23:19;;;;;;;0.00;0.00;;;5.50;99.90;;;;;;5009142;28;20035;-67
2022/11/22 00:25:45;;;;;;;0.00;0.00;;;5.40;99.90;;;;;;5012801;28;20033;-67
2022/11/22 00:28:11;;;;;;;0.00;0.00;;;5.50;99.90;;;;;;5010291;28;20026;-67
2022/11/22 00:30:36;;;;;;;0.00;0.00;;;5.50;99.90;;;;;;5010150;28;20038;-65
2022/11/22 00:33:02;;;;;;;0.00;0.00;;;5.50;99.90;;;;;;5013309;28;20176;-67
2022/11/22 00:35:28;;;;;;;0.00;0.00;;;5.50;99.90;;;;;;5017762;28;20061;-66
2022/11/22 00:37:53;;;;;;;0.00;0.00;;;5.50;99.90;;;;;;5014666;28;20104;-66
2022/11/22 00:40:19;;;;;;;0.00;0.00;;;5.60;99.90;;;;;;5016670;28;20033;-66
2022/11/22 00:42:45;;;;;;;0.00;0.00;;;5.50;99.90;;;;;;5013182;28;20033;-67
2022/11/22 00:45:11;;;;;;;0.00;0.00;;;5.50;99.90;;;;;;5012684;28;20029;-66
2022/11/22 00:47:36;;;;;;;0.00;0.00;;;5.50;99.90;;;;;;5022015;28;20420;-66
2022/11/22 00:50:03;;;;;;;0.00;0.00;;;5.60;99.90;;;;;;5023725;28;20164;-66
2022/11/22 00:52:28;;;;;;;0.00;0.00;;;5.50;99.90;;;;;;5034165;28;20029;-66
2022/11/22 00:54:54;;;;;;;0.00;0.00;;;5.40;99.90;;;;;;5025169;28;20491;-66
2022/11/22 00:57:20;;;;;;;0.00;0.00;;;5.40;99.90;;;;;;5019314;28;20038;-67
2022/11/22 00:59:45;;;;;;;0.00;0.00;;;5.30;99.90;;;;;;5021476;28;20030;-67
2022/11/22 01:02:11;;;;;;;0.00;0.00;;;5.30;99.90;;;;;;5017392;28;20053;-67
2022/11/22 01:04:37;;;;;;;0.00;0.00;;;5.30;99.90;;;;;;5014174;28;20034;-67
2022/11/22 01:07:02;;;;;;;0.00;0.00;;;5.20;99.90;;;;;;5016533;28;20034;-67
2022/11/22 01:09:28;;;;;;;0.00;0.00;;;5.20;99.90;;;;;;5014149;28;20068;-66
2022/11/22 01:11:54;;;;;;;0.00;0.00;;;5.10;99.90;;;;;;5021794;28;20026;-66
2022/11/22 01:14:19;;;;;;;0.00;0.00;;;5.10;99.90;;;;;;5008352;28;20084;-66
2022/11/22 01:16:45;;;;;;;0.00;0.00;;;5.00;99.90;;;;;;5009599;28;20459;-67
2022/11/22 01:19:11;;;;;;;0.00;0.00;;;5.00;99.90;;;;;;5003959;28;20033;-66
2022/11/22 01:21:37;;;;;;;0.00;0.00;;;5.00;99.90;;;;;;5009614;28;20029;-65
2022/11/22 01:24:03;;;;;;;0.00;0.00;;;5.10;99.90;;;;;;5007919;28;20057;-66
2022/11/22 01:26:28;;;;;;;0.00;0.00;;;5.10;99.90;;;;;;5008865;28;20036;-66
2022/11/22 01:28:54;;;;;;;0.00;0.00;;;5.00;99.90;;;;;;5010012;28;20083;-66
2022/11/22 01:31:20;;;;;;;0.00;0.00;;;5.00;99.90;;;;;;5010850;28;20113;-66
2022/11/22 01:33:45;;;;;;;0.00;0.00;;;5.00;99.90;;;;;;5007717;28;20038;-66
2022/11/22 01:36:11;;;;;;;0.00;0.00;;;4.90;99.90;;;;;;5010537;28;20026;-65
2022/11/22 01:38:37;;;;;;;0.00;0.00;;;4.90;99.90;;;;;;5010766;28;20463;-66
2022/11/22 01:41:02;;;;;;;0.00;0.00;;;4.90;99.90;;;;;;5009002;28;20120;-66
2022/11/22 01:43:28;;;;;;;0.00;0.00;;;4.90;99.90;;;;;;5005371;28;20056;-66
2022/11/22 01:46:02;;;;;;;0.00;0.00;;;4.90;99.90;;;;;;5010106;28;20041;-66
2022/11/22 01:48:43;;;;;;;0.00;0.00;;;5.00;99.90;;;;;;5004721;28;20030;-66
2022/11/22 01:51:36;;;;;;;0.00;0.00;;;5.00;99.90;;;;;;5005879;28;20021;-66
2022/11/22 01:54:06;;;;;;;0.00;0.00;;;5.00;99.90;;;;;;5007869;28;20077;-66
2022/11/22 01:56:33;;;;;;;0.00;0.00;;;5.00;99.90;;;;;;5010565;28;20038;-66
2022/11/22 01:59:05;;;;;;;0.00;0.00;;;5.00;99.90;;;;;;5007691;28;20477;-66
2022/11/22 02:01:32;;;;;;;0.00;0.00;;;4.90;99.90;;;;;;5011066;28;20109;-66
2022/11/22 02:04:00;;;;;;;0.00;0.00;;;4.80;99.90;;;;;;5009404;28;20030;-66
2022/11/22 02:06:40;;;;;;;0.00;0.00;;;4.60;99.90;;;;;;5007077;28;20540;-67
2022/11/22 02:09:11;;;;;;;0.00;0.00;;;4.60;99.90;;;;;;5007168;28;20033;-66
2022/11/22 02:11:40;;;;;;;0.00;0.00;;;4.60;99.90;;;;;;5004267;28;20129;-67
2022/11/22 02:14:07;;;;;;;0.00;0.00;;;4.60;99.90;;;;;;5005661;28;20060;-66
2022/11/22 02:16:34;;;;;;;0.00;0.00;;;4.70;99.90;;;;;;5007206;28;20033;-66
2022/11/22 02:19:00;;;;;;;0.00;0.00;;;4.70;99.90;;;;;;5006616;28;20083;-67
2022/11/22 02:21:27;;;;;;;0.00;0.00;;;4.70;99.90;;;;;;5010416;28;20037;-66
2022/11/22 02:24:08;;;;;;;0.00;0.00;;;4.70;99.90;;;;;;5001469;28;20480;-67
2022/11/22 02:26:34;;;;;;;0.00;0.00;;;4.80;99.90;;;;;;5020829;28;20488;-67
2022/11/22 02:29:05;;;;;;;0.00;0.00;;;4.90;99.90;;;;;;5005086;28;20045;-67
2022/11/22 02:31:44;;;;;;;0.00;0.00;;;4.90;99.90;;;;;;5006518;28;20110;-66
2022/11/22 02:34:10;;;;;;;0.00;0.00;;;4.90;99.90;;;;;;5024297;28;20044;-66
2022/11/22 02:36:38;;;;;;;;;;;5.00;99.90;;;;;;5008852;28;20033;-66
2022/11/22 02:39:05;;;;;;;0.00;0.00;;;5.00;99.90;;;;;;5009694;28;20012;-66
2022/11/22 02:41:32;;;;;;;0.00;0.00;;;4.90;99.90;;;;;;5011088;28;20025;-66
2022/11/22 02:43:58;;;;;;;0.00;0.00;;;4.80;99.90;;;;;;4977143;28;20049;-66
2022/11/22 02:46:24;;;;;;;;;;;4.90;99.90;;;;;;5006436;28;20442;-65
2022/11/22 02:48:50;;;;;;;0.00;0.00;;;4.90;99.90;;;;;;5024632;28;19909;-66
2022/11/22 02:51:18;;;;;;;0.00;0.00;;;4.80;99.90;;;;;;5028579;28;20067;-67
2022/11/22 02:53:45;;;;;;;0.00;0.00;;;4.80;99.90;;;;;;5025525;28;20066;-67
2022/11/22 02:56:11;;;;;;;0.00;0.00;;;4.80;99.90;;;;;;5022692;28;20476;-66
2022/11/22 02:58:36;;;;;;;0.00;0.00;;;4.80;99.90;;;;;;5032277;28;20029;-66
2022/11/22 03:01:02;;;;;;;0.00;0.00;;;4.80;99.90;;;;;;5027136;28;20037;-66
2022/11/22 03:03:28;;;;;;;;;;;4.80;99.90;;;;;;5022898;28;20057;-67
2022/11/22 03:05:54;;;;;;;0.00;0.00;;;4.80;99.90;;;;;;5016549;28;19936;-66
2022/11/22 03:08:19;;;;;;;0.00;0.00;;;4.70;99.90;;;;;;5023817;28;20029;-67
2022/11/22 03:10:45;;;;;;;0.00;0.00;;;4.80;99.90;;;;;;5016836;28;20376;-66
2022/11/22 03:13:11;;;;;;;0.00;0.00;;;4.70;99.90;;;;;;5013846;28;20372;-66
2022/11/22 03:15:36;;;;;;;0.00;0.00;;;4.70;99.90;;;;;;5008428;28;20442;-66
2022/11/22 03:18:03;;;;;;;0.00;0.00;;;4.70;99.90;;;;;;5007726;28;20052;-67
2022/11/22 03:20:30;;;;;;;0.00;0.00;;;4.70;99.90;;;;;;5005785;28;20049;-66
2022/11/22 03:22:56;;;;;;;0.00;0.00;;;4.80;99.90;;;;;;5020682;28;20532;-66
2022/11/22 03:25:21;;;;;;;0.00;0.00;;;4.70;99.90;;;;;;5000100;28;20436;-66
2022/11/22 03:27:47;;;;;;;0.00;0.00;;;4.70;99.90;;;;;;5002974;28;20611;-67
2022/11/22 03:30:13;;;;;;;0.00;0.00;;;4.70;99.90;;;;;;5000544;28;20030;-67
2022/11/22 03:32:39;;;;;;;0.00;0.00;;;4.70;99.90;;;;;;5005511;28;20388;-66
2022/11/22 03:35:05;;;;;;;0.00;0.00;;;4.70;99.90;;;;;;5002553;28;20133;-66
2022/11/22 03:37:31;;;;;;;;;;;4.80;99.90;;;;;;5008573;28;20084;-67
2022/11/22 03:39:56;;;;;;;0.00;0.00;;;5.00;99.90;;;;;;5008393;28;19960;-66
2022/11/22 03:42:22;;;;;;;0.00;0.00;;;5.00;99.90;;;;;;5009678;28;20062;-67
2022/11/22 03:44:48;;;;;;;0.00;0.00;;;5.10;99.90;;;;;;5007206;28;20496;-66
2022/11/22 03:47:13;;;;;;;0.00;0.00;;;5.10;99.90;;;;;;5011655;28;20025;-66
2022/11/22 03:49:39;;;;;;;0.00;0.00;;;5.10;99.90;;;;;;5010067;28;21081;-67
2022/11/22 03:52:05;;;;;;;0.00;0.00;;;5.00;99.90;;;;;;5006643;28;21300;-67
2022/11/22 03:54:30;;;;;;;0.00;0.00;;;5.00;99.90;;;;;;5007484;28;20033;-65
2022/11/22 03:56:56;;;;;;;0.00;0.00;;;5.00;99.90;;;;;;5009494;28;20030;-66
2022/11/22 03:59:21;;;;;;;0.00;0.00;;;5.00;99.90;;;;;;5009201;28;20042;-67
2022/11/22 04:01:47;;;;;;;0.00;0.00;;;5.00;99.90;;;;;;5009457;28;20109;-66
2022/11/22 04:04:13;;;;;;;0.00;0.00;;;5.10;99.90;;;;;;5008758;28;20030;-66
2022/11/22 04:06:38;;;;;;;0.00;0.00;;;5.10;99.90;;;;;;5009069;28;20579;-66
2022/11/22 04:09:04;;;;;;;0.00;0.00;;;5.20;99.90;;;;;;5007227;28;20018;-67
2022/11/22 04:11:30;;;;;;;0.00;0.00;;;5.20;99.90;;;;;;5008437;28;20112;-66
2022/11/22 04:16:40;;;;;;;0.00;0.00;;;5.40;99.90;;;;;;5007801;28;20060;-66
2022/11/22 04:19:06;;;;;;;0.00;0.00;;;5.60;99.90;;;;;;5007326;28;20026;-67
2022/11/22 04:21:35;;;;;;;0.00;0.00;;;5.70;99.90;;;;;;5009294;28;20073;-66
2022/11/22 04:26:50;;;;;;;0.00;0.00;;;6.00;99.90;;;;;;5006054;28;21128;-67
2022/11/22 04:29:17;;;;;;;0.00;0.00;;;6.00;99.90;;;;;;5003404;28;20037;-66
2022/11/22 04:34:27;;;;;;;0.00;0.00;;;6.10;99.90;;;;;;5006439;28;20109;-66
2022/11/22 04:36:53;;;;;;;0.00;0.00;;;6.20;99.90;;;;;;5007319;28;20113;-66
2022/11/22 04:39:19;;;;;;;0.00;0.00;;;6.30;99.90;;;;;;5003302;28;20034;-67
2022/11/22 04:41:44;;;;;;;0.00;0.00;;;6.30;99.90;;;;;;5009361;28;20030;-66
2022/11/22 04:46:55;;;;;;;0.00;0.00;;;6.50;99.90;;;;;;5011215;28;20111;-66
2022/11/22 04:49:20;;;;;;;0.00;0.00;;;6.50;99.90;;;;;;5013091;28;20068;-66
2022/11/22 04:54:31;;;;;;;0.00;0.00;;;6.50;99.90;;;;;;5011120;28;20056;-66
2022/11/22 04:56:57;;;;;;;0.00;0.00;;;6.50;99.90;;;;;;5012333;28;20030;-66
2022/11/22 04:59:22;;;;;;;0.00;0.00;;;6.50;99.90;;;;;;5007309;28;20030;-67
2022/11/22 05:01:48;;;;;;;0.00;0.00;;;6.50;99.90;;;;;;5008673;28;20022;-66
2022/11/22 05:04:14;;;;;;;0.00;0.00;;;6.50;99.90;;;;;;5013606;28;20121;-67
2022/11/22 05:06:39;;;;;;;0.00;0.00;;;6.50;99.90;;;;;;5009847;28;20036;-66
2022/11/22 05:09:05;;;;;;;0.00;0.00;;;6.50;99.90;;;;;;5005042;28;20029;-66
2022/11/22 05:11:30;;;;;;;0.00;0.00;;;6.50;99.90;;;;;;5010032;28;20258;-67
2022/11/22 05:13:56;;;;;;;0.00;0.00;;;6.50;99.90;;;;;;5011621;28;20034;-67
2022/11/22 05:16:22;;;;;;;0.00;0.00;;;6.60;99.90;;;;;;5010403;28;20473;-66
2022/11/22 05:18:57;;;;;;;0.00;0.00;;;6.50;99.90;;;;;;5003939;28;20039;-67
2022/11/22 05:21:28;;;;;;;0.00;0.00;;;6.50;99.90;;;;;;5006896;28;20053;-65
2022/11/22 05:23:54;;;;;;;0.00;0.00;;;6.50;99.90;;;;;;5010877;28;20046;-66
2022/11/22 05:26:29;;;;;;;0.00;0.00;;;6.50;99.90;;;;;;5012209;28;20035;-67
2022/11/22 05:28:56;;;;;;;0.00;0.00;;;6.60;99.90;;;;;;5010503;28;20112;-67
2022/11/22 05:31:23;;;;;;;0.00;0.00;;;6.60;99.90;;;;;;5003400;28;20838;-66
2022/11/22 05:33:51;;;;;;;0.00;0.00;;;6.50;99.90;;;;;;5010453;28;20022;-67
2022/11/22 05:36:18;;;;;;;0.00;0.00;;;6.60;99.90;;;;;;5015624;28;20030;-66
2022/11/22 05:38:44;;;;;;;0.00;0.00;;;6.60;99.90;;;;;;5014996;28;20030;-67
2022/11/22 05:41:11;;;;;;;0.00;0.00;;;6.60;99.90;;;;;;5021393;28;20064;-66
2022/11/22 05:43:37;;;;;;;0.00;0.00;;;6.60;99.90;;;;;;5027552;28;20065;-66
2022/11/22 05:46:23;;;;;;;;;;;6.50;99.90;;;;;;5019892;28;20068;-66
2022/11/22 05:48:49;;;;;;;0.00;0.00;;;6.50;99.90;;;;;;5020916;28;20430;-66
2022/11/22 05:51:17;;;;;;;0.00;0.00;;;6.50;99.90;;;;;;5023575;28;20113;-67
2022/11/22 05:53:44;;;;;;;0.00;0.00;;;6.60;99.90;;;;;;5006591;28;20395;-66
2022/11/22 05:56:13;;;;;;;0.00;0.00;;;6.60;99.90;;;;;;5020202;28;20109;-68
2022/11/22 05:58:39;;;;;;;0.00;0.00;;;6.60;99.90;;;;;;5031176;28;20034;-67
2022/11/22 06:01:07;;;;;;;0.00;0.00;;;6.70;99.90;;;;;;5031240;28;20036;-67
2022/11/22 06:03:34;;;;;;;0.00;0.00;;;6.70;99.90;;;;;;5021158;28;20034;-66
2022/11/22 06:06:02;;;;;;;0.00;0.00;;;6.80;99.90;;;;;;5050527;28;20408;-67
2022/11/22 06:08:29;;;;;;;0.00;0.00;;;6.80;99.90;;;;;;5024231;28;20025;-67
2022/11/22 06:10:55;;;;;;;0.00;0.00;;;6.80;99.90;;;;;;5023378;28;20025;-66
2022/11/22 06:13:21;;;;;;;0.00;0.00;;;6.80;99.90;;;;;;5021761;28;20139;-65
2022/11/22 06:15:47;;;;;;;0.00;0.00;;;6.70;99.90;;;;;;5023745;28;20511;-67
2022/11/22 06:18:12;;;;;;;0.00;0.00;;;6.70;99.90;;;;;;5019393;28;20471;-67
2022/11/22 06:20:38;;;;;;;0.00;0.00;;;6.60;99.90;;;;;;5027975;28;20068;-67
2022/11/22 06:23:04;;;;;;;0.00;0.00;;;6.50;99.90;;;;;;5035482;28;20049;-67
2022/11/22 06:25:29;;;;;;;0.00;0.00;;;6.50;99.90;;;;;;5026824;28;20041;-66
2022/11/22 06:27:58;;;;;;;0.00;0.00;;;6.50;99.90;;;;;;5017225;28;20488;-67
2022/11/22 06:30:23;;;;;;;0.00;0.00;;;6.50;99.90;;;;;;5042165;28;20037;-68
2022/11/22 06:32:49;;;;;;;0.00;0.00;;;6.50;99.90;;;;;;5027556;28;20026;-67
2022/11/22 06:35:15;;;;;;;0.00;0.00;;;6.60;99.90;;;;;;5030022;28;20030;-67
2022/11/22 06:37:40;;;;;;;0.00;0.00;;;6.50;99.90;;;;;;5016694;28;20030;-66
2022/11/22 06:40:10;;;;;;;0.00;0.00;;;6.60;99.90;;;;;;5011615;28;20125;-67
2022/11/22 06:42:36;;;;;;;0.00;0.00;;;6.70;99.90;;;;;;5005539;28;20399;-67
2022/11/22 06:45:01;;;;;;;0.00;0.00;;;6.70;99.90;;;;;;5010123;28;20026;-67
2022/11/22 06:47:27;;;;;;;0.00;0.00;;;6.60;99.90;;;;;;5009084;28;20507;-68
2022/11/22 06:49:52;;;;;;;0.00;0.00;;;6.50;99.90;;;;;;5008816;28;20741;-67
2022/11/22 06:52:18;;;;;;;0.00;0.00;;;6.40;99.90;;;;;;5010348;28;20026;-66
2022/11/22 06:54:44;;;;;;;0.00;0.00;;;6.40;99.90;;;;;;5008941;28;20070;-66
2022/11/22 06:57:13;;;;;;;0.00;0.00;;;6.30;99.90;;;;;;5013699;28;20480;-69
2022/11/22 06:59:39;;;;;;;0.00;0.00;;;6.30;99.90;;;;;;5008659;28;20397;-68
2022/11/22 07:02:05;;;;;;;0.00;0.00;;;6.20;99.90;;;;;;5001435;28;20030;-67
2022/11/22 07:04:31;;;;;;;;;;;6.20;99.90;;;;;;5009567;28;20053;-67
2022/11/22 07:06:56;;;;;;;0.00;0.00;;;6.30;99.90;;;;;;5005431;28;19917;-67
2022/11/22 07:09:22;;;;;;;0.00;0.00;;;6.40;99.90;;;;;;5038674;28;20034;-67
2022/11/22 07:11:48;;;;;;;0.00;0.00;;;6.40;99.90;;;;;;5007886;28;20088;-69
2022/11/22 07:14:13;;;;;;;0.00;0.00;;;6.50;99.90;;;;;;5007420;28;20065;-68
2022/11/22 07:16:39;;;;;;;0.00;0.00;;;6.40;99.90;;;;;;5006894;28;20033;-67
2022/11/22 07:19:05;;;;;;;0.00;0.00;;;6.40;99.90;;;;;;5008627;28;20105;-69
2022/11/22 07:21:31;;;;;;;;;;;6.40;99.90;;;;;;5008631;28;20459;-69
2022/11/22 07:23:57;;;;;;;0.00;0.00;;;6.50;99.90;;;;;;5013999;28;19913;-68
2022/11/22 07:26:24;;;;;;;0.00;0.00;;;6.50;99.90;;;;;;5007908;28;20088;-69
2022/11/22 07:28:50;;;;;;;0.00;0.00;;;6.60;99.90;;;;;;5004443;28;20518;-70
2022/11/22 07:31:17;;;;;;;0.00;0.00;;;6.50;99.90;;;;;;5003499;28;20034;-67
2022/11/22 07:33:43;;;;;;;0.00;0.00;;;6.60;99.90;;;;;;5004569;28;20073;-68
2022/11/22 07:36:13;;;;;;;0.00;0.00;;;6.50;99.90;;;;;;5014253;28;20026;-68
2022/11/22 07:38:39;;;;;;;0.00;0.00;;;6.40;99.90;;;;;;5002786;28;20104;-68
2022/11/22 07:41:06;;;;;;;0.00;0.00;;;6.40;99.90;;;;;;5002318;28;20026;-68
2022/11/22 07:43:32;;;;;;;0.00;0.00;;;6.20;99.90;;;;;;5000718;28;20042;-68
2022/11/22 07:46:02;;;;;;;0.00;0.00;;;6.10;99.90;;;;;;5004717;28;20033;-69
2022/11/22 07:48:28;;;;;;;0.00;0.00;;;6.00;99.90;;;;;;5000799;28;20029;-67
2022/11/22 07:50:54;;;;;;;0.00;0.00;;;6.00;99.90;;;;;;5005546;28;20026;-67
2022/11/22 07:53:19;;;;;;;0.00;0.00;;;6.10;99.90;;;;;;5009595;28;20988;-67
2022/11/22 07:55:45;;;;;;;0.00;0.00;;;6.00;99.90;;;;;;5004167;28;20029;-68
2022/11/22 07:58:11;;;;;;;0.00;0.00;;;6.00;99.90;;;;;;5002836;28;20030;-67
2022/11/22 08:00:36;;;;;;;0.00;0.00;;;5.90;99.90;;;;;;5001742;28;20038;-68
2022/11/22 08:03:05;;;;;;;0.00;0.00;;;6.00;99.90;;;;;;5005647;28;20026;-68
2022/11/22 08:05:31;;;;;;;0.00;0.00;;;6.10;99.90;;;;;;5006461;28;20105;-66
2022/11/22 08:07:56;;;;;;;0.00;0.00;;;6.10;99.90;;;;;;5005092;28;20057;-68
2022/11/22 08:10:22;;;;;;;0.00;0.00;;;6.10;99.90;;;;;;5001772;28;20431;-68
2022/11/22 08:12:48;;;;;;;0.00;0.00;;;6.20;99.90;;;;;;5004475;28;20033;-67
2022/11/22 08:15:15;;;;;;;0.00;0.00;;;6.30;99.90;;;;;;5003904;28;20053;-67
2022/11/22 08:17:41;;;;;;;0.00;0.00;;;6.50;99.90;;;;;;5002882;28;20080;-67
2022/11/22 08:20:08;;;;;;;0.00;0.00;;;6.70;99.90;;;;;;5017694;28;20030;-68
2022/11/22 08:22:39;;;;;;;0.00;0.00;;;6.80;99.90;;;;;;5005646;28;20048;-69
2022/11/22 08:25:11;;;;;;;0.00;0.00;;;6.80;99.90;;;;;;5007939;28;20037;-68
2022/11/22 08:27:40;;;;;;;0.00;0.00;;;6.80;99.90;;;;;;5002906;28;20468;-69
2022/11/22 08:30:06;;;;;;;0.00;0.00;;;6.90;99.90;;;;;;5019210;28;20420;-67
2022/11/22 08:32:32;;;;;;;0.00;0.00;;;7.10;99.90;;;;;;5005471;28;20429;-67
2022/11/22 08:34:58;;;;;;;0.00;0.00;;;7.20;99.90;;;;;;5003490;28;20095;-69
2022/11/22 08:37:24;;;;;;;0.00;0.00;;;7.20;99.90;;;;;;5005251;28;20042;-68
2022/11/22 08:39:52;;;;;;;0.00;0.00;;;7.20;99.90;;;;;;5002428;28;20038;-68
2022/11/22 08:42:18;;;;;;;0.00;0.00;;;7.30;99.90;;;;;;5026332;28;21754;-68
2022/11/22 08:44:44;;;;;;;0.00;0.00;;;7.50;99.90;;;;;;5006594;28;20072;-68
2022/11/22 08:47:13;;;;;;;0.00;0.00;;;7.60;99.90;;;;;;5006710;28;20121;-69
2022/11/22 08:49:38;;;;;;;0.00;0.00;;;7.60;99.90;;;;;;5005511;28;20790;-70
2022/11/22 08:52:04;;;;;;;0.00;0.00;;;7.70;99.90;;;;;;5010833;28;20053;-67
2022/11/22 08:54:30;;;;;;;0.00;0.00;;;7.80;99.90;;;;;;5010508;28;20029;-69
2022/11/22 08:56:58;;;;;;;0.00;0.00;;;7.90;99.90;;;;;;5007521;28;20037;-69
2022/11/22 08:59:24;;;;;;;0.00;0.00;;;7.90;99.90;;;;;;5004642;28;20053;-69
2022/11/22 09:01:52;;;;;;;0.00;0.00;;;8.00;99.90;;;;;;5011012;28;20392;-69
2022/11/22 09:04:18;;;;;;;0.00;0.00;;;8.00;99.90;;;;;;5011149;28;20546;-70
2022/11/22 09:06:43;;;;;;;0.00;0.00;;;8.10;99.90;;;;;;5010899;28;20030;-68
2022/11/22 09:09:12;;;;;;;;;;;7.90;99.90;;;;;;5010168;28;20038;-68
2022/11/22 09:11:38;;;;;;;0.00;0.00;;;7.90;99.90;;;;;;5025211;28;19913;-68
2022/11/22 09:14:03;;;;;;;0.00;0.00;;;7.90;99.90;;;;;;5013181;28;20419;-67
2022/11/22 09:16:31;;;;;;;0.00;0.00;;;7.70;99.90;;;;;;5012842;28;20401;-67
2022/11/22 09:18:57;;;;;;;0.00;0.00;;;7.60;99.90;;;;;;5011045;28;20037;-69
2022/11/22 09:21:23;;;;;;;0.00;0.00;;;7.50;99.90;;;;;;5010918;28;20034;-68
2022/11/22 09:23:50;;;;;;;0.00;0.00;;;7.60;99.90;;;;;;5008789;28;20127;-68
2022/11/22 09:26:20;;;;;;;0.00;0.00;;;7.60;99.90;;;;;;5008902;28;20041;-67
2022/11/22 09:28:46;;;;;;;0.00;0.00;;;7.70;99.90;;;;;;5022880;28;20030;-68
2022/11/22 09:31:18;;;;;;;0.00;0.00;;;7.90;99.90;;;;;;5029868;28;20025;-68
2022/11/22 09:33:44;;;;;;;0.00;0.00;;;8.00;99.90;;;;;;5021940;28;20030;-67
2022/11/22 09:36:14;;;;;;;0.00;0.00;;;8.10;99.90;;;;;;5033796;28;20044;-68
2022/11/22 09:38:39;;;;;;;0.00;0.00;;;8.00;99.90;;;;;;5033629;28;20017;-69
2022/11/22 09:41:19;;;;;;;0.00;0.00;;;8.10;99.90;;;;;;5045135;28;20496;-67
2022/11/22 09:44:07;;;;;;;0.00;0.00;;;8.20;99.90;;;;;;5028436;28;20029;-68
2022/11/22 09:47:09;;;;;;;0.00;0.00;;;8.30;99.90;;;;;;5011013;28;20124;-69
2022/11/22 09:49:52;;;;;;;0.00;0.00;;;8.40;99.90;;;;;;5022452;28;20069;-69
2022/11/22 09:52:31;;;;;;;0.00;0.00;;;8.40;99.90;;;;;;5033014;28;20026;-68
2022/11/22 09:55:11;;;;;;;0.00;0.00;;;8.40;99.90;;;;;;5047471;28;20033;-69
2022/11/22 09:58:07;;;;;;;0.00;0.00;;;8.60;99.90;;;;;;5032630;28;20083;-68
2022/11/22 10:00:34;;;;;;;0.00;0.00;;;8.70;99.90;;;;;;5019846;28;20061;-67
2022/11/22 10:03:09;;;;;;;0.00;0.00;;;8.80;99.90;;;;;;5019064;28;20083;-67
2022/11/22 10:05:56;;;;;;;0.00;0.00;;;8.90;99.90;;;;;;5041972;28;20038;-67
2022/11/22 10:09:04;;;;;;;0.00;0.00;;;9.00;99.90;;;;;;5013559;28;20038;-69
2022/11/22 10:11:43;;;;;;;0.00;0.00;;;9.20;99.90;;;;;;4998198;28;20029;-67
2022/11/22 10:14:37;;;;;;;0.00;0.00;;;9.20;99.90;;;;;;5007227;28;20033;-68
2022/11/22 10:17:23;;;;;;;0.00;0.00;;;9.40;99.90;;;;;;5008017;28;20413;-67
2022/11/22 10:19:57;;;;;;;0.00;0.00;;;9.60;99.90;;;;;;5008123;28;20538;-68
2022/11/22 10:22:24;;;;;;;0.00;0.00;;;9.50;99.90;;;;;;5008092;28;20025;-67
2022/11/22 10:24:50;;;;;;;0.00;0.00;;;9.60;99.90;;;;;;5010027;28;20160;-67
2022/11/22 10:27:15;;;;;;;0.00;0.00;;;9.70;99.90;;;;;;5008854;28;20520;-68
2022/11/22 10:29:52;;;;;;;0.00;0.00;;;9.80;99.90;;;;;;5009434;28;20452;-67
2022/11/22 10:32:23;;;;;;;0.00;0.00;;;9.70;99.90;;;;;;5011753;28;20029;-68
2022/11/22 10:35:13;;;;;;;0.00;0.00;;;9.60;99.90;;;;;;5006602;28;20030;-67
2022/11/22 10:38:00;;;;;;;0.00;0.00;;;9.70;99.90;;;;;;5007655;28;20400;-67
2022/11/22 10:40:54;;;;;;;0.00;0.00;;;9.80;99.90;;;;;;5005505;28;20137;-68
2022/11/22 10:43:44;;;;;;;0.00;0.00;;;9.90;99.90;;;;;;5010722;28;20148;-67
2022/11/22 10:46:32;;;;;;;0.00;0.00;;;9.90;99.90;;;;;;5026197;28;20070;-68
2022/11/22 10:49:10;;;;;;;0.00;0.00;;;10.00;99.90;;;;;;5013271;28;20084;-68
2022/11/22 10:51:55;;;;;;;0.00;0.00;;;10.10;99.90;;;;;;5006226;28;20115;-67
2022/11/22 10:54:44;;;;;;;0.00;0.00;;;10.10;99.90;;;;;;5023488;28;20334;-68
2022/11/22 10:57:28;;;;;;;0.00;0.00;;;10.10;99.90;;;;;;5009070;28;20064;-67
2022/11/22 11:00:01;;;;;;;0.00;0.00;;;10.00;99.90;;;;;;5010803;28;20030;-67
2022/11/22 11:02:45;;;;;;;0.00;0.00;;;10.00;99.90;;;;;;5011723;28;20053;-68
2022/11/22 11:05:16;;;;;;;0.00;0.00;;;10.00;99.90;;;;;;5004744;28;20109;-67
2022/11/22 11:07:47;;;;;;;0.00;0.00;;;10.10;99.90;;;;;;5012501;28;20048;-67
2022/11/22 11:10:20;;;;;;;0.00;0.00;;;10.00;99.90;;;;;;5010880;28;20018;-67
2022/11/22 11:12:53;;;;;;;0.00;0.00;;;10.10;99.90;;;;;;5010404;28;20029;-68
2022/11/22 11:15:32;;;;;;;0.00;0.00;;;10.20;99.90;;;;;;5009531;28;20026;-67
2022/11/22 11:18:01;;;;;;;0.00;0.00;;;10.10;99.90;;;;;;5007716;28;20128;-68
2022/11/22 11:20:32;;;;;;;0.00;0.00;;;10.10;99.90;;;;;;5012692;28;20050;-66
2022/11/22 11:22:58;;;;;;;0.00;0.00;;;10.00;99.90;;;;;;5011329;28;20129;-68
2022/11/22 11:25:33;;;;;;;0.00;0.00;;;10.10;99.90;;;;;;5009064;28;20026;-67
2022/11/22 11:28:21;;;;;;;0.00;0.00;;;10.20;99.90;;;;;;5005408;28;20042;-68
2022/11/22 11:30:49;;;;;;;0.00;0.00;;;10.50;99.90;;;;;;5010053;28;20029;-67
2022/11/22 11:33:28;;;;;;;0.00;0.00;;;10.70;99.90;;;;;;5011666;28;20049;-67
2022/11/22 11:36:05;;;;;;;0.00;0.00;;;10.80;99.90;;;;;;5007518;28;20021;-68
2022/11/22 11:38:34;;;;;;;0.00;0.00;;;10.90;99.90;;;;;;5009819;28;20539;-67
2022/11/22 11:41:23;;;;;;;0.00;0.00;;;10.90;99.90;;;;;;5013380;28;20479;-67
2022/11/22 11:43:51;;;;;;;0.00;0.00;;;10.90;99.90;;;;;;5013581;28;20048;-67
2022/11/22 11:46:25;;;;;;;0.00;0.00;;;11.00;99.90;;;;;;5011063;28;20026;-66
2022/11/22 11:48:52;;;;;;;0.00;0.00;;;10.90;99.90;;;;;;5006830;28;20026;-66
2022/11/22 11:51:24;;;;;;;0.00;0.00;;;10.90;99.90;;;;;;5009469;28;20419;-67
2022/11/22 11:54:19;;;;;;;0.00;0.00;;;10.90;99.90;;;;;;5009475;28;20034;-67
2022/11/22 11:57:04;;;;;;;0.00;0.00;;;11.00;99.90;;;;;;5010801;28;20399;-66
2022/11/22 11:59:36;;;;;;;0.00;0.00;;;11.20;99.90;;;;;;5013267;28;20040;-68
2022/11/22 12:02:21;;;;;;;0.00;0.00;;;11.10;99.90;;;;;;5010594;28;20899;-67
2022/11/22 12:04:57;;;;;;;0.00;0.00;;;11.00;99.90;;;;;;5009065;28;20053;-67
2022/11/22 12:07:23;;;;;;;0.00;0.00;;;10.90;99.90;;;;;;5010900;28;20065;-67
2022/11/22 12:09:51;;;;;;;0.00;0.00;;;10.90;99.90;;;;;;5014331;28;20337;-68
2022/11/22 12:12:41;;;;;;;0.00;0.00;;;11.00;99.90;;;;;;5011918;28;20026;-68
2022/11/22 12:15:37;;;;;;;0.00;0.00;;;11.00;99.90;;;;;;5008330;28;20135;-68
2022/11/22 12:18:22;;;;;;;0.00;0.00;;;11.10;99.90;;;;;;5012883;28;20480;-67
2022/11/22 12:20:59;;;;;;;0.00;0.00;;;11.00;99.90;;;;;;5013645;28;20045;-68
2022/11/22 12:23:40;;;;;;;0.00;0.00;;;10.90;99.90;;;;;;5006259;28;20622;-67
2022/11/22 12:26:06;;;;;;;0.00;0.00;;;10.80;99.90;;;;;;5011874;28;20049;-66
2022/11/22 12:28:32;;;;;;;0.00;0.00;;;10.80;99.90;;;;;;5013513;28;20029;-67
2022/11/22 12:31:27;;;;;;;0.00;0.00;;;10.80;99.90;;;;;;5011569;28;20516;-66
2022/11/22 12:34:01;;;;;;;0.00;0.00;;;10.70;99.90;;;;;;5006851;28;20041;-68
2022/11/22 12:36:58;;;;;;;0.00;0.00;;;10.80;99.90;;;;;;5012242;28;20022;-67
2022/11/22 12:39:26;;;;;;;0.00;0.00;;;10.80;99.90;;;;;;5006608;28;20475;-67
2022/11/22 12:41:59;;;;;;;0.00;0.00;;;10.80;99.90;;;;;;5009971;28;20069;-68
2022/11/22 12:44:26;;;;;;;0.00;0.00;;;10.70;99.90;;;;;;5012851;28;20060;-68
2022/11/22 12:46:58;;;;;;;0.00;0.00;;;10.50;99.90;;;;;;5011998;28;20037;-67
2022/11/22 12:49:30;;;;;;;0.00;0.00;;;10.50;99.90;;;;;;5009828;28;20053;-67
2022/11/22 12:52:00;;;;;;;0.00;0.00;;;10.60;99.90;;;;;;5013518;28;20092;-68
2022/11/22 12:54:51;;;;;;;0.00;0.00;;;10.60;99.90;;;;;;5012856;28;20050;-67
2022/11/22 12:57:22;;;;;;;0.00;0.00;;;10.70;99.90;;;;;;5004533;28;20125;-68
2022/11/22 13:00:16;;;;;;;0.00;0.00;;;10.70;99.90;;;;;;5010187;28;20045;-67
2022/11/22 13:03:00;;;;;;;0.00;0.00;;;10.70;99.90;;;;;;5011557;28;20026;-68
2022/11/22 13:05:47;;;;;;;0.00;0.00;;;10.60;99.90;;;;;;5013126;28;20029;-68
2022/11/22 13:08:37;;;;;;;0.00;0.00;;;10.60;99.90;;;;;;5006745;28;20084;-67
2022/11/22 13:11:29;;;;;;;0.00;0.00;;;10.50;99.90;;;;;;5006921;28;20030;-67
2022/11/22 13:14:09;;;;;;;0.00;0.00;;;10.30;99.90;;;;;;5009634;28;20022;-67
2022/11/22 13:16:36;;;;;;;0.00;0.00;;;10.30;99.90;;;;;;5013541;28;20216;-67
2022/11/22 13:19:07;;;;;;;0.00;0.00;;;10.30;99.90;;;;;;5011613;28;20478;-67
2022/11/22 13:22:14;;;;;;;0.00;0.00;;;10.50;99.90;;;;;;5010356;28;20029;-67
2022/11/22 13:25:04;;;;;;;0.00;0.00;;;10.60;99.90;;;;;;5007884;28;20076;-67
2022/11/22 13:27:43;;;;;;;0.00;0.00;;;10.60;99.90;;;;;;5012720;28;20422;-66